Airfield :
LOGIN :

Register | Disclaimer

   EN    FR    IT 

 










Legend :    VFR   Marginal VFR   IFR   Intensive IFR   Very Intensive IFR
Visi :
Ceiling :
>= 8 km
>= 3000ft
5 to 8 km
1000 to 3000 ft
1500m to 5 km
500 to 1000 ft
800 to 1500m
200 to 500 ft
< 800m
< 200 ft
Symbols :   Thunderstorms  Fog  Heavy snow  Heavy precipitations  Wind > 20 kt
SIGMETs :     Misc.  Thunderstorms  Icing  Turbulence  Mountain Waves  Volcanic Ashes






- Airport Elevation : 46 ft
- IATA code : SNN


EINN - Shannon

CURRENT METAR :
  • 250400Z 30004KT 9999 SCT007 BKN025 15/14 Q1017 NOSIG

EXPIRED METARs :
  • 250330Z 30006KT 280V350 9999 FEW007 BKN009 15/14 Q1017 NOSIG
  • 250300Z 26002KT 9999 BKN007 BKN026 15/14 Q1017 NOSIG
  • 250230Z 27002KT 9999 SCT007 BKN020 BKN026 15/14 Q1017 NOSIG
  • 250200Z 28003KT 9999 BKN007 BKN026 15/14 Q1017 NOSIG
  • 250130Z 28004KT 9999 BKN008 BKN017 BKN027 15/14 Q1017 NOSIG
  • 250100Z 28006KT 9999 BKN008 BKN012 16/14 Q1017 NOSIG
  • 250030Z 29005KT 9999 FEW008 BKN010 16/14 Q1017 TEMPO 4000 BKN008
  • 250000Z 29002KT 9999 SCT010 BKN018 BKN026 16/14 Q1017 TEMPO 4000 BKN008
  • 242330Z 29004KT 9999 BKN010 BKN018 16/14 Q1017 TEMPO 4000 BKN008

TAF TAF EINN
Valid from the 25 at 00:00 until the 26 at 00:00 UTC


242300Z 2500/2524 27005KT 9999 SCT010 BKN018
TEMPO 2500/2507 4000 BR BKN008
PROB40
TEMPO 2500/2505 2500 -DZ BR BKN004
BECMG 2504/2506 34010KT
TEMPO 2507/2510 BKN010
BECMG 2515/2517 31008KT



MET'MAP, your aeronautical weather chart ! - Copyright ORBIFLY December 2007 - Disclaimer

ORBIFLY MET'MAP TEAM :

Programming & Development : Alexandra Zaïnal
Original concept : Baudouin d'Aumeries
Technical & hardware support : Manuel Goepfert
Assistance : Marc-Olivier Méhu




SOURCES & CREDITS :

   NOAA